createdAt,value
2023-01-20T00:00:11.725Z,81.75
2023-01-20T00:02:47.215Z,81.88
2023-01-20T00:05:19.762Z,81.63
2023-01-20T00:07:52.252Z,80.61
2023-01-20T00:10:25.058Z,81.25
2023-01-20T00:12:58.906Z,81.32
2023-01-20T00:15:31.521Z,81.28
2023-01-20T00:18:04.125Z,81.56
2023-01-20T00:20:36.738Z,81.54
2023-01-20T00:23:09.343Z,81.04
2023-01-20T00:25:42.015Z,81.52
2023-01-20T00:28:17.342Z,81.32
2023-01-20T00:30:50.031Z,81.37
2023-01-20T00:33:22.494Z,80.48
2023-01-20T00:35:55.153Z,81.85
2023-01-20T00:38:27.587Z,80.90
2023-01-20T00:41:00.406Z,81.40
2023-01-20T00:43:34.800Z,80.35
2023-01-20T00:46:08.011Z,80.92
2023-01-20T00:48:40.894Z,80.69
2023-01-20T00:51:13.484Z,80.72
2023-01-20T00:53:45.928Z,81.41
2023-01-20T00:56:18.491Z,81.31
2023-01-20T00:58:52.577Z,80.98
2023-01-20T01:01:25.233Z,81.71
2023-01-20T01:03:57.806Z,81.38
2023-01-20T01:06:30.703Z,81.48
2023-01-20T01:09:03.241Z,81.28
2023-01-20T01:11:35.729Z,80.74
2023-01-20T01:14:09.585Z,80.45
2023-01-20T01:16:42.151Z,80.93
2023-01-20T01:19:14.514Z,81.09
2023-01-20T01:21:47.036Z,80.31
2023-01-20T01:24:19.526Z,80.50
2023-01-20T01:26:53.847Z,81.07
2023-01-20T01:29:27.721Z,80.70
2023-01-20T01:32:00.156Z,81.23
2023-01-20T01:34:32.775Z,80.57
2023-01-20T01:37:05.529Z,80.06
2023-01-20T01:39:38.071Z,80.29
2023-01-20T01:42:12.255Z,80.95
2023-01-20T01:45:23.106Z,80.07
2023-01-20T01:48:02.693Z,80.04
2023-01-20T01:50:42.179Z,79.73
2023-01-20T01:53:15.895Z,80.53
2023-01-20T01:55:52.199Z,80.46
2023-01-20T01:58:28.445Z,80.82
2023-01-20T02:01:01.494Z,80.33
2023-01-20T02:03:40.685Z,79.99
2023-01-20T02:06:14.588Z,80.22
2023-01-20T02:08:47.463Z,80.37
2023-01-20T02:11:20.066Z,80.14
2023-01-20T02:13:52.741Z,80.28
2023-01-20T02:16:35.339Z,80.26
2023-01-20T02:19:31.134Z,80.08
2023-01-20T02:22:18.563Z,79.94
2023-01-20T02:25:16.407Z,79.66
2023-01-20T02:28:12.706Z,80.10
2023-01-20T02:31:06.820Z,80.00
2023-01-20T02:33:42.985Z,80.34
2023-01-20T02:36:26.016Z,79.80
2023-01-20T02:39:04.259Z,79.96
2023-01-20T02:41:43.846Z,79.38
2023-01-20T02:44:22.998Z,80.03
2023-01-20T02:47:01.807Z,80.01
2023-01-20T02:49:40.085Z,79.08
2023-01-20T02:52:16.131Z,79.80
2023-01-20T02:54:51.608Z,78.84
2023-01-20T02:57:29.039Z,80.01
2023-01-20T03:00:06.657Z,79.73
2023-01-20T03:02:42.675Z,78.99
2023-01-20T03:05:20.982Z,79.62
2023-01-20T03:07:55.465Z,79.15
2023-01-20T03:10:45.537Z,79.09
2023-01-20T03:13:23.401Z,78.76
2023-01-20T03:16:00.280Z,79.24
2023-01-20T03:18:34.387Z,79.90
2023-01-20T03:21:10.463Z,79.23
2023-01-20T03:23:47.359Z,78.86
2023-01-20T03:26:22.778Z,79.14
2023-01-20T03:28:55.971Z,79.30
2023-01-20T03:31:32.080Z,78.86
2023-01-20T03:34:11.243Z,79.57
2023-01-20T03:36:46.527Z,78.96
2023-01-20T03:39:22.160Z,78.98
2023-01-20T03:42:07.230Z,78.61
2023-01-20T03:44:51.670Z,79.12
2023-01-20T03:47:34.743Z,79.56
2023-01-20T03:50:15.538Z,78.94
2023-01-20T03:52:53.216Z,78.59
2023-01-20T03:55:30.724Z,78.88
2023-01-20T03:58:07.795Z,78.57
2023-01-20T04:00:43.124Z,78.93
2023-01-20T04:03:19.184Z,79.22
2023-01-20T04:05:52.429Z,78.47
2023-01-20T04:08:29.678Z,78.66
2023-01-20T04:11:06.922Z,78.93
2023-01-20T04:13:39.675Z,79.29
2023-01-20T04:16:16.883Z,78.96
2023-01-20T04:18:51.567Z,78.60
2023-01-20T04:21:30.300Z,77.83
2023-01-20T04:24:07.615Z,79.26
2023-01-20T04:26:40.326Z,79.23
2023-01-20T04:29:13.422Z,78.39
2023-01-20T04:31:46.074Z,78.58
2023-01-20T04:34:18.684Z,78.52
2023-01-20T04:36:51.187Z,78.27
2023-01-20T04:39:25.072Z,78.38
2023-01-20T04:41:57.661Z,78.55
2023-01-20T04:44:30.080Z,79.26
2023-01-20T04:47:02.708Z,78.90
2023-01-20T04:49:37.592Z,79.05
2023-01-20T04:52:10.265Z,78.27
2023-01-20T04:54:44.243Z,78.76
2023-01-20T04:57:16.925Z,78.68
2023-01-20T04:59:50.076Z,78.55
2023-01-20T05:02:22.760Z,78.46
2023-01-20T05:04:55.405Z,78.69
2023-01-20T05:07:27.967Z,78.74
2023-01-20T05:10:01.964Z,78.04
2023-01-20T05:12:36.681Z,78.21
2023-01-20T05:15:09.783Z,78.27
2023-01-20T05:17:42.312Z,78.57
2023-01-20T05:20:15.021Z,78.68
2023-01-20T05:22:47.879Z,77.68
2023-01-20T05:25:21.727Z,78.08
2023-01-20T05:27:54.172Z,78.38
2023-01-20T05:30:26.747Z,78.41
2023-01-20T05:32:59.336Z,78.69
2023-01-20T05:35:31.729Z,78.36
2023-01-20T05:38:04.289Z,77.71
2023-01-20T05:40:38.226Z,77.86
2023-01-20T05:43:12.875Z,78.24
2023-01-20T05:45:46.837Z,78.88
2023-01-20T05:48:19.514Z,78.49
2023-01-20T05:50:52.601Z,77.78
2023-01-20T05:53:25.195Z,78.32
2023-01-20T05:56:03.685Z,78.37
2023-01-20T05:58:36.164Z,77.44
2023-01-20T06:01:10.992Z,78.33
2023-01-20T06:03:43.909Z,78.05
2023-01-20T06:06:18.478Z,78.08
2023-01-20T06:08:54.775Z,77.74
2023-01-20T06:11:28.678Z,77.89
2023-01-20T06:14:01.280Z,77.76
2023-01-20T06:16:33.831Z,77.25
2023-01-20T06:19:06.463Z,77.41
2023-01-20T06:21:39.055Z,76.79
2023-01-20T06:24:11.444Z,77.25
2023-01-20T06:26:45.384Z,77.25
2023-01-20T06:29:18.152Z,77.30
2023-01-20T06:31:50.713Z,77.61
2023-01-20T06:34:23.279Z,77.91
2023-01-20T06:36:56.335Z,77.62
2023-01-20T06:39:29.011Z,77.52
2023-01-20T06:42:02.867Z,76.92
2023-01-20T06:44:35.379Z,77.81
2023-01-20T06:47:07.892Z,77.21
2023-01-20T06:49:40.512Z,77.69
2023-01-20T06:52:13.170Z,77.14
2023-01-20T06:54:46.112Z,77.69
2023-01-20T06:57:19.980Z,77.05
2023-01-20T06:59:52.706Z,76.44
2023-01-20T07:02:25.247Z,77.44
2023-01-20T07:04:57.826Z,76.79
2023-01-20T07:07:30.419Z,77.25
2023-01-20T07:10:03.220Z,76.74
2023-01-20T07:12:40.454Z,76.80
2023-01-20T07:15:14.177Z,77.48
2023-01-20T07:17:47.076Z,77.31
2023-01-20T07:20:19.872Z,77.87
2023-01-20T07:22:52.374Z,77.36
2023-01-20T07:25:25.034Z,76.55
2023-01-20T07:27:59.268Z,77.16
2023-01-20T07:30:32.043Z,76.60
2023-01-20T07:33:05.913Z,77.16
2023-01-20T07:35:38.719Z,76.91
2023-01-20T07:38:11.209Z,76.04
2023-01-20T07:40:43.930Z,76.65
2023-01-20T07:43:17.956Z,75.68
2023-01-20T07:45:50.648Z,75.29
2023-01-20T07:48:27.281Z,75.87
2023-01-20T07:51:03.559Z,76.34
2023-01-20T07:53:38.700Z,75.67
2023-01-20T07:56:12.923Z,75.52
2023-01-20T07:58:47.939Z,74.66
2023-01-20T08:01:22.036Z,75.07
2023-01-20T08:03:55.758Z,75.53
2023-01-20T08:06:28.828Z,74.94
2023-01-20T08:09:02.329Z,74.83
2023-01-20T08:11:35.332Z,75.35
2023-01-20T08:14:09.904Z,75.46
2023-01-20T08:17:02.001Z,74.29
2023-01-20T08:19:37.796Z,74.82
2023-01-20T08:22:10.476Z,75.01
2023-01-20T08:24:43.090Z,75.00
2023-01-20T08:27:15.821Z,74.81
2023-01-20T08:29:49.877Z,74.96
2023-01-20T08:32:22.503Z,74.70
2023-01-20T08:34:55.370Z,74.60
2023-01-20T08:37:27.929Z,74.97
2023-01-20T08:40:00.583Z,74.23
2023-01-20T08:42:33.063Z,74.90
2023-01-20T08:45:09.214Z,74.69
2023-01-20T08:47:46.174Z,74.69
2023-01-20T08:50:22.655Z,75.62
2023-01-20T08:52:55.355Z,75.50
2023-01-20T08:55:27.869Z,75.61
2023-01-20T08:58:01.624Z,74.90
2023-01-20T09:00:35.702Z,75.38
2023-01-20T09:03:09.860Z,75.47
2023-01-20T09:05:42.446Z,75.45
2023-01-20T09:08:17.442Z,75.63
2023-01-20T09:10:49.925Z,75.99
2023-01-20T09:13:22.432Z,76.38
2023-01-20T09:15:56.308Z,74.77
2023-01-20T09:18:29.029Z,75.52
2023-01-20T09:21:02.986Z,75.97
2023-01-20T09:23:37.575Z,75.71
2023-01-20T09:26:10.541Z,75.16
2023-01-20T09:28:46.751Z,75.56
2023-01-20T09:31:20.659Z,75.12
2023-01-20T09:33:53.238Z,74.77
2023-01-20T09:36:28.596Z,75.79
2023-01-20T09:39:19.707Z,75.78
2023-01-20T09:42:10.935Z,76.11
2023-01-20T09:44:49.141Z,75.49
2023-01-20T09:47:31.625Z,75.23
2023-01-20T09:50:41.003Z,76.36
2023-01-20T09:53:30.937Z,76.03
2023-01-20T09:56:09.245Z,75.90
2023-01-20T09:58:48.784Z,75.13
2023-01-20T10:01:30.835Z,75.09
2023-01-20T10:04:13.079Z,74.91
2023-01-20T10:06:49.173Z,75.55
2023-01-20T10:09:28.445Z,75.51
2023-01-20T10:12:06.967Z,75.43
2023-01-20T10:14:43.800Z,76.05
2023-01-20T10:17:23.775Z,75.84
2023-01-20T10:20:04.187Z,76.46
2023-01-20T10:22:43.333Z,75.95
2023-01-20T10:25:20.873Z,75.75
2023-01-20T10:27:56.459Z,75.66
2023-01-20T10:30:34.801Z,75.88
2023-01-20T10:33:10.551Z,75.16
2023-01-20T10:35:48.567Z,75.21
2023-01-20T10:38:32.069Z,75.29
2023-01-20T10:41:13.918Z,74.95
2023-01-20T10:43:50.806Z,74.97
2023-01-20T10:46:43.866Z,75.43
2023-01-20T10:49:36.351Z,75.31
2023-01-20T10:52:25.803Z,76.05
2023-01-20T10:55:05.882Z,75.92
2023-01-20T10:57:39.326Z,75.20
2023-01-20T11:00:22.809Z,74.76
2023-01-20T11:02:59.099Z,75.58
2023-01-20T11:05:38.390Z,74.96
2023-01-20T11:08:16.934Z,75.31
2023-01-20T11:10:54.630Z,75.14
2023-01-20T11:13:27.529Z,74.63
2023-01-20T11:16:04.336Z,75.27
2023-01-20T11:18:37.031Z,75.46
2023-01-20T11:21:12.367Z,75.45
2023-01-20T11:23:58.234Z,75.67
2023-01-20T11:26:33.292Z,75.11
2023-01-20T11:29:27.496Z,75.45
2023-01-20T11:32:00.311Z,74.56
2023-01-20T11:34:35.003Z,75.08
2023-01-20T11:37:17.901Z,75.01
2023-01-20T11:40:04.363Z,75.51
2023-01-20T11:42:43.350Z,75.12
2023-01-20T11:45:29.273Z,74.41
2023-01-20T11:48:16.608Z,74.81
2023-01-20T11:50:54.460Z,74.96
2023-01-20T11:53:29.220Z,74.74
2023-01-20T11:56:14.322Z,74.30
2023-01-20T11:58:54.808Z,75.03
2023-01-20T12:01:28.817Z,74.82
2023-01-20T12:04:28.818Z,75.27
2023-01-20T12:07:05.500Z,74.69
2023-01-20T12:09:41.757Z,74.76
2023-01-20T12:12:26.613Z,75.16
2023-01-20T12:15:05.587Z,74.49
2023-01-20T12:17:44.372Z,74.90
2023-01-20T12:20:24.864Z,74.88
2023-01-20T12:23:21.341Z,75.12
2023-01-20T12:25:57.408Z,74.58
2023-01-20T12:28:36.968Z,74.42
2023-01-20T12:31:11.437Z,74.59
2023-01-20T12:33:45.611Z,74.46
2023-01-20T12:36:44.262Z,75.15
2023-01-20T12:39:33.132Z,74.72
2023-01-20T12:42:35.260Z,74.65
2023-01-20T12:45:21.543Z,74.60
2023-01-20T12:48:04.445Z,74.89
2023-01-20T12:50:52.734Z,74.67
2023-01-20T12:53:42.737Z,74.08
2023-01-20T12:56:28.211Z,74.67
2023-01-20T12:59:18.589Z,74.83
2023-01-20T13:02:02.236Z,74.83
2023-01-20T13:05:07.679Z,74.19
2023-01-20T13:07:50.126Z,74.45
2023-01-20T13:10:39.659Z,74.85
2023-01-20T13:13:25.964Z,74.87
2023-01-20T13:16:05.736Z,74.84
2023-01-20T13:18:54.238Z,74.99
2023-01-20T13:21:26.989Z,74.76
2023-01-20T13:24:01.804Z,74.79
2023-01-20T13:26:36.243Z,74.30
2023-01-20T13:29:21.753Z,74.48
2023-01-20T13:31:54.599Z,74.13
2023-01-20T13:34:39.432Z,73.86
2023-01-20T13:37:35.004Z,74.36
2023-01-20T13:40:47.318Z,75.00
2023-01-20T13:43:51.378Z,73.70
2023-01-20T13:46:46.625Z,74.58
2023-01-20T13:49:25.141Z,73.80
